Aheville, France

7:32 PM CEST on April 27, 2017 (GMT +0200)
Rue Estivant | | Change Station

Elev 958 ft 48.30 °N, 6.13 °E | Updated 7 minutes ago

Mostly Cloudy
Mostly Cloudy
48.7 °F
Feels Like 49 °F
N
1.9
Wind Variable Wind from WNW
Gusts 6.8 mph

Today
High -- | Low -- °F
--% Chance of Precip.
Yesterday
High -- | Low -- °F
Precip. -- in
Pressure 29.95 in
Visibility 6.2 miles
Clouds Few 2300 ft
Mostly Cloudy 3300 ft
Mostly Cloudy 4000 ft
Windchill 49 °F
Dew Point 48 °F
Humidity 98%
Rainfall 0.07 in
Snow Depth Not available.
6:23 AM 8:43 PM
New Moon, 2% visible
METAR LFSO 271700Z AUTO 35003G14KT 270V070 9999 -RA FEW023/// BKN033/// BKN040/// ///TCU 06/00 Q1014 TEMPO 18015KT 4000 -SHRA BECMG SCT035 BKN045 BKN060
Pressure 29.95 in
Visibility 6.2 miles
Clouds Few 2300 ft
Mostly Cloudy 3300 ft
Mostly Cloudy 4000 ft
Windchill 49 °F
Dew Point 48 °F
Humidity 98%
Rainfall 0.07 in
Snow Depth Not available.
6:23 AM 8:43 PM
New Moon, 2% visible
METAR LFSO 271700Z AUTO 35003G14KT 270V070 9999 -RA FEW023/// BKN033/// BKN040/// ///TCU 06/00 Q1014 TEMPO 18015KT 4000 -SHRA BECMG SCT035 BKN045 BKN060

Get Severe Weather Alerts

Thanks for signing up!

Be on the lookout for a verification email in your inbox.

You'll start receiving the daily forecast at 8 AM.

×

10-Day Weather Forecast

×

Almanac

Astronomy

Apr. 27, 2017 Rise Set
Actual Time
Civil Twilight
Nautical Twilight
Astronomical Twilight
Moon
Length of Visible Light
Length of Day
Tomorrow will be .
, % of the Moon is Illuminated

Today's Extremes

Country Highs Country Lows

Community

WunderPhotos

WunderBlog® & News

Nearby

Air Quality

  Air Quality AQ Index Pollutant
Not available.

Snow Depth

Station Depth Elevation

Earthquake Activity

City Distance Mag. Time & Date
Minimum magnitude displayed is 2.5.

Coastal Water Temperatures

Place Temperature

Stations

Nearby Weather Stations

Station Location Temp. Windchill Dew Point Humidity Wind Precip. Elev Updated Type